Welcome!

Visit our other weather sites:

Template documentation
and downloads

And another site



There are no active watches, warnings or advisories

Nearby METAR Reports

   
KAVP - Albrightsville, PA
Updated: Aug 18 2019 11:54 am
Clear  
Clear  
   Wind: varies 6.9 mph
Wind: varies 6.9 mph
Temperature: 87.8°F
Heat Index: 96.8°F
Dew Point: 73.4°F
Humidity: 62%
Barometer: 30.02 inHg
Clouds: Clear
Visibility: 10 mi
Cloud details: Clear
KAVP 181654Z VRB06KT 10SM CLR 31/23 A3002 RMK AO2 SLP154 T03060228
KIWA - Apache Junction, AZ
Updated: Aug 18 2019 11:50 am
Partly Cloudy  
Partly Cloudy  
   Wind: varies 6.9 mph
Wind: varies 6.9 mph
Temperature: 95°F
Dew Point: 44.6°F
Humidity: 18%
Barometer: 29.92 inHg
Clouds: Partly Cloudy
Visibility: 10 mi
Cloud details: Partly Cloudy 6096 m
KIWA 181650Z VRB06KT 10SM SCT200 35/07 A2992
KPKB - Blue Rock, OH
Updated: Aug 18 2019 11:53 am
Few Clouds  
Few Clouds  
   Wind: South 6.9 mph
Wind: South 6.9 mph
Temperature: 87.8°F
Heat Index: 93.2°F
Dew Point: 69.8°F
Humidity: 55%
Barometer: 30.05 inHg
Clouds: Few Clouds
Visibility: 10 mi
Cloud details: Few Clouds 2438 m
KPKB 181653Z 19006KT 10SM FEW080 31/21 A3005 RMK AO2 SLP167 T03060211
KHVN - Branford, CT
Updated: Aug 18 2019 11:53 am
Few Clouds  
Few Clouds  
   Wind: South 6.9 mph
Wind: South 6.9 mph
Temperature: 82.4°F
Heat Index: 89.6°F
Dew Point: 75.2°F
Humidity: 79%
Barometer: 30.01 inHg
Clouds: Few Clouds
Visibility: 10 mi
Cloud details: Few Clouds 366 m
KHVN 181653Z 18006KT 10SM FEW012 28/24 A3001 RMK AO2 SLP162 T02830244
KPHX - Carefree, AZ
Updated: Aug 18 2019 11:51 am
Mostly Cloudy  
Mostly Cloudy  
   Wind: Calm
Wind: Calm
Temperature: 93.2°F
Dew Point: 48.2°F
Humidity: 21%
Barometer: 29.88 inHg
Clouds: Mostly Cloudy
Visibility: 10 mi
Cloud details: Few Clouds 5486 m,
Partly Cloudy 7620 m,
Mostly Cloudy 9144 m
KPHX 181651Z 00000KT 10SM FEW180 SCT250 BKN300 34/09 A2988 RMK AO2 SLP094 T03390089
 

Script developed by  Saratoga-weather.org Adapted for the template by  Weerstation Leuven